createdAt,value
2018-06-02T00:02:22.785Z,19.82
2018-06-02T00:04:51.239Z,19.80
2018-06-02T00:07:19.618Z,19.83
2018-06-02T00:09:48.008Z,19.83
2018-06-02T00:12:16.367Z,19.77
2018-06-02T00:14:44.684Z,19.78
2018-06-02T00:17:13.015Z,19.78
2018-06-02T00:19:41.357Z,19.77
2018-06-02T00:22:09.773Z,19.78
2018-06-02T00:24:38.108Z,19.74
2018-06-02T00:27:06.449Z,19.76
2018-06-02T00:29:34.844Z,19.72
2018-06-02T00:32:03.243Z,19.71
2018-06-02T00:34:31.566Z,19.70
2018-06-02T00:36:59.915Z,19.72
2018-06-02T00:39:28.282Z,19.68
2018-06-02T00:41:56.622Z,19.64
2018-06-02T00:44:24.948Z,19.56
2018-06-02T00:46:53.288Z,19.56
2018-06-02T00:49:21.623Z,19.52
2018-06-02T00:51:49.967Z,19.46
2018-06-02T00:57:17.025Z,19.44
2018-06-02T00:59:45.345Z,19.43
2018-06-02T01:02:13.695Z,19.39
2018-06-02T01:04:42.014Z,19.38
2018-06-02T01:07:10.431Z,19.34
2018-06-02T01:09:38.759Z,19.30
2018-06-02T01:12:07.097Z,19.29
2018-06-02T01:14:35.428Z,19.29
2018-06-02T01:17:03.890Z,19.31
2018-06-02T01:19:32.237Z,19.31
2018-06-02T01:22:00.573Z,19.35
2018-06-02T01:24:28.931Z,19.30
2018-06-02T01:26:57.258Z,19.26
2018-06-02T01:29:25.603Z,19.20
2018-06-02T01:31:53.961Z,19.23
2018-06-02T01:34:22.347Z,19.28
2018-06-02T01:36:50.741Z,19.27
2018-06-02T01:39:19.088Z,19.20
2018-06-02T01:41:47.430Z,19.16
2018-06-02T01:44:15.822Z,19.12
2018-06-02T01:46:44.212Z,19.08
2018-06-02T01:49:12.616Z,19.10
2018-06-02T01:51:40.993Z,19.11
2018-06-02T01:54:09.326Z,19.07
2018-06-02T01:56:37.658Z,19.07
2018-06-02T01:59:05.983Z,19.05
2018-06-02T02:01:34.384Z,19.04
2018-06-02T02:04:02.985Z,18.96
2018-06-02T02:06:31.378Z,19.00
2018-06-02T02:08:59.712Z,18.95
2018-06-02T02:11:28.156Z,18.87
2018-06-02T02:13:56.485Z,18.94
2018-06-02T02:16:24.826Z,19.00
2018-06-02T02:18:53.140Z,18.98
2018-06-02T02:21:21.630Z,19.00
2018-06-02T02:23:50.026Z,18.96
2018-06-02T02:26:18.358Z,18.90
2018-06-02T02:28:46.695Z,18.88
2018-06-02T02:31:15.099Z,18.85
2018-06-02T02:33:43.501Z,18.83
2018-06-02T02:36:11.844Z,18.83
2018-06-02T02:38:40.174Z,18.76
2018-06-02T02:41:08.559Z,18.78
2018-06-02T02:43:36.892Z,18.81
2018-06-02T02:46:05.239Z,18.78
2018-06-02T02:48:33.555Z,18.70
2018-06-02T02:51:01.946Z,18.70
2018-06-02T02:53:30.262Z,18.68
2018-06-02T02:55:58.604Z,18.64
2018-06-02T02:58:26.942Z,18.65
2018-06-02T03:00:55.300Z,18.65
2018-06-02T03:03:23.696Z,18.61
2018-06-02T03:05:52.022Z,18.60
2018-06-02T03:08:20.362Z,18.62
2018-06-02T03:10:48.701Z,18.63
2018-06-02T03:13:17.039Z,18.65
2018-06-02T03:15:45.382Z,18.63
2018-06-02T03:18:13.748Z,18.63
2018-06-02T03:20:42.109Z,18.61
2018-06-02T03:23:10.439Z,18.64
2018-06-02T03:25:38.759Z,18.67
2018-06-02T03:28:07.190Z,18.69
2018-06-02T03:30:35.516Z,18.66
2018-06-02T03:33:03.844Z,18.71
2018-06-02T03:35:32.276Z,18.70
2018-06-02T03:38:00.609Z,18.67
2018-06-02T03:40:28.958Z,18.71
2018-06-02T03:42:57.311Z,18.71
2018-06-02T03:45:25.636Z,18.71
2018-06-02T03:47:53.968Z,18.75
2018-06-02T03:50:22.354Z,18.83
2018-06-02T03:52:50.709Z,18.88
2018-06-02T03:55:19.062Z,18.90
2018-06-02T03:57:47.414Z,18.96
2018-06-02T04:00:15.774Z,18.97
2018-06-02T04:02:44.218Z,18.94
2018-06-02T04:05:12.914Z,19.00
2018-06-02T04:07:41.282Z,19.01
2018-06-02T04:10:09.676Z,19.03
2018-06-02T04:12:38.066Z,19.05
2018-06-02T04:15:06.390Z,19.02
2018-06-02T04:17:34.747Z,19.04
2018-06-02T04:20:03.127Z,19.11
2018-06-02T04:22:31.549Z,19.10
2018-06-02T04:24:59.930Z,19.21
2018-06-02T04:27:28.246Z,19.26
2018-06-02T04:29:56.593Z,19.27
2018-06-02T04:32:24.906Z,19.32
2018-06-02T04:34:53.287Z,19.36
2018-06-02T04:37:21.624Z,19.38
2018-06-02T04:39:49.976Z,19.47
2018-06-02T04:42:18.320Z,19.56
2018-06-02T04:44:46.634Z,19.55
2018-06-02T04:47:14.985Z,19.53
2018-06-02T04:49:43.301Z,19.66
2018-06-02T04:52:11.645Z,19.73
2018-06-02T04:54:40.026Z,19.83
2018-06-02T04:57:08.387Z,19.78
2018-06-02T04:59:36.706Z,19.90
2018-06-02T05:02:05.103Z,19.96
2018-06-02T05:04:33.414Z,19.96
2018-06-02T05:07:01.757Z,19.98
2018-06-02T05:09:30.061Z,20.06
2018-06-02T05:11:58.450Z,20.07
2018-06-02T05:14:26.782Z,20.13
2018-06-02T05:16:55.151Z,20.10
2018-06-02T05:19:23.480Z,20.13
2018-06-02T05:21:51.835Z,20.12
2018-06-02T05:24:20.231Z,20.22
2018-06-02T05:26:48.571Z,20.44
2018-06-02T05:29:16.925Z,20.46
2018-06-02T05:31:45.327Z,20.58
2018-06-02T05:34:14.456Z,20.71
2018-06-02T05:36:42.766Z,20.64
2018-06-02T05:39:11.127Z,20.71
2018-06-02T05:41:39.442Z,20.71
2018-06-02T05:44:08.904Z,20.72
2018-06-02T05:46:37.323Z,20.81
2018-06-02T05:49:05.650Z,20.84
2018-06-02T05:51:34.058Z,20.97
2018-06-02T05:54:02.411Z,20.97
2018-06-02T05:56:30.801Z,20.85
2018-06-02T05:58:59.181Z,20.90
2018-06-02T06:01:27.487Z,20.83
2018-06-02T06:03:55.812Z,20.90
2018-06-02T06:06:24.304Z,20.98
2018-06-02T06:08:52.669Z,20.99
2018-06-02T06:11:21.092Z,21.18
2018-06-02T06:13:49.446Z,21.55
2018-06-02T06:16:17.893Z,21.74
2018-06-02T06:18:46.569Z,21.79
2018-06-02T06:21:14.979Z,21.97
2018-06-02T06:23:48.095Z,21.72
2018-06-02T06:26:16.434Z,21.72
2018-06-02T06:28:44.791Z,21.79
2018-06-02T06:31:13.188Z,21.73
2018-06-02T06:33:41.503Z,22.05
2018-06-02T06:36:09.855Z,22.36
2018-06-02T06:38:38.197Z,22.40
2018-06-02T06:41:06.574Z,22.28
2018-06-02T06:43:34.912Z,22.33
2018-06-02T06:46:03.224Z,22.10
2018-06-02T06:48:31.530Z,22.13
2018-06-02T06:50:59.935Z,22.23
2018-06-02T06:53:28.286Z,22.42
2018-06-02T06:55:56.607Z,22.90
2018-06-02T06:58:24.932Z,23.61
2018-06-02T07:00:53.258Z,24.62
2018-06-02T07:03:21.649Z,25.11
2018-06-02T07:05:50.272Z,25.85
2018-06-02T07:08:18.679Z,27.08
2018-06-02T07:10:47.082Z,28.31
2018-06-02T07:13:15.494Z,27.50
2018-06-02T07:15:43.807Z,26.97
2018-06-02T07:18:12.194Z,26.14
2018-06-02T07:20:40.532Z,25.54
2018-06-02T07:23:08.932Z,25.80
2018-06-02T07:25:37.238Z,25.90
2018-06-02T07:28:05.614Z,25.26
2018-06-02T07:30:33.935Z,24.58
2018-06-02T07:33:02.260Z,24.27
2018-06-02T07:35:30.594Z,24.09
2018-06-02T07:37:58.976Z,24.25
2018-06-02T07:40:27.301Z,25.29
2018-06-02T07:42:55.650Z,25.93
2018-06-02T07:45:23.975Z,26.58
2018-06-02T07:47:52.305Z,27.50
2018-06-02T07:50:20.636Z,26.55
2018-06-02T07:52:48.951Z,25.91
2018-06-02T07:55:17.281Z,25.81
2018-06-02T07:57:45.588Z,24.93
2018-06-02T08:00:13.919Z,25.44
2018-06-02T08:02:42.234Z,25.72
2018-06-02T08:05:10.578Z,25.07
2018-06-02T08:07:38.898Z,23.83
2018-06-02T08:10:07.231Z,23.95
2018-06-02T08:12:35.807Z,24.08
2018-06-02T08:15:04.140Z,24.27
2018-06-02T08:17:35.382Z,23.86
2018-06-02T08:20:03.709Z,23.41
2018-06-02T08:22:32.081Z,23.03
2018-06-02T08:25:00.474Z,23.17
2018-06-02T08:27:28.880Z,23.16
2018-06-02T08:29:57.256Z,23.03
2018-06-02T08:32:25.594Z,22.96
2018-06-02T08:34:54.064Z,22.99
2018-06-02T08:37:22.390Z,23.11
2018-06-02T08:39:50.748Z,23.43
2018-06-02T08:42:19.056Z,23.33
2018-06-02T08:44:47.422Z,23.32
2018-06-02T08:47:15.740Z,23.55
2018-06-02T08:49:44.054Z,23.85
2018-06-02T08:52:12.490Z,24.11
2018-06-02T08:54:40.801Z,24.31
2018-06-02T08:57:09.128Z,24.31
2018-06-02T08:59:37.443Z,24.23
2018-06-02T09:02:05.854Z,24.22
2018-06-02T09:04:34.204Z,24.19
2018-06-02T09:07:02.533Z,24.08
2018-06-02T09:09:31.021Z,23.83
2018-06-02T09:11:59.444Z,23.82
2018-06-02T09:14:27.789Z,23.30
2018-06-02T09:16:56.237Z,23.31
2018-06-02T09:19:24.603Z,23.06
2018-06-02T09:21:52.926Z,23.09
2018-06-02T09:24:21.233Z,22.97
2018-06-02T09:26:49.581Z,23.34
2018-06-02T09:29:17.897Z,23.04
2018-06-02T09:31:46.269Z,23.24
2018-06-02T09:34:14.596Z,23.31
2018-06-02T09:36:42.943Z,23.07
2018-06-02T09:39:11.514Z,23.02
2018-06-02T09:41:39.812Z,23.04
2018-06-02T09:44:08.154Z,22.95
2018-06-02T09:46:36.501Z,23.33
2018-06-02T09:49:04.945Z,23.66
2018-06-02T09:51:33.700Z,23.94
2018-06-02T09:54:02.127Z,24.04
2018-06-02T09:56:37.234Z,24.32
2018-06-02T09:59:05.654Z,24.45
2018-06-02T10:01:34.031Z,24.69
2018-06-02T10:04:02.378Z,25.02
2018-06-02T10:06:30.708Z,24.69
2018-06-02T10:08:59.034Z,24.51
2018-06-02T10:11:27.348Z,24.50
2018-06-02T10:13:55.678Z,24.68
2018-06-02T10:16:24.000Z,24.64
2018-06-02T10:18:52.644Z,24.58
2018-06-02T10:21:21.050Z,24.24
2018-06-02T10:23:49.495Z,24.03
2018-06-02T10:28:56.664Z,24.15
2018-06-02T10:31:25.086Z,24.36
2018-06-02T10:33:53.452Z,24.64
2018-06-02T10:36:21.789Z,24.34
2018-06-02T10:38:50.139Z,24.29
2018-06-02T10:41:18.476Z,24.56
2018-06-02T10:43:46.914Z,24.69
2018-06-02T10:46:15.254Z,24.40
2018-06-02T10:48:43.585Z,24.39
2018-06-02T10:51:11.924Z,24.35
2018-06-02T10:53:40.238Z,24.41
2018-06-02T10:56:08.564Z,24.35
2018-06-02T10:58:36.884Z,24.38
2018-06-02T11:01:05.280Z,24.20
2018-06-02T11:03:33.962Z,24.19
2018-06-02T11:06:02.368Z,23.97
2018-06-02T11:08:30.691Z,24.08
2018-06-02T11:10:59.065Z,24.49
2018-06-02T11:13:27.411Z,24.76
2018-06-02T11:15:55.733Z,24.78
2018-06-02T11:18:24.151Z,25.09
2018-06-02T11:20:52.486Z,24.91
2018-06-02T11:26:10.513Z,24.23
2018-06-02T11:28:38.828Z,23.88
2018-06-02T11:31:07.195Z,23.77
2018-06-02T11:33:35.545Z,23.65
2018-06-02T11:36:04.081Z,23.60
2018-06-02T11:38:32.413Z,23.83
2018-06-02T11:41:00.977Z,24.01
2018-06-02T11:43:29.334Z,24.29
2018-06-02T11:45:57.667Z,24.27
2018-06-02T11:48:26.018Z,24.04
2018-06-02T11:50:54.343Z,24.35
2018-06-02T11:53:22.682Z,24.51
2018-06-02T11:55:51.009Z,24.57
2018-06-02T11:58:19.390Z,24.35
2018-06-02T12:00:47.741Z,24.42
2018-06-02T12:03:16.157Z,24.22
2018-06-02T12:05:44.493Z,24.31
2018-06-02T12:08:12.892Z,24.38
2018-06-02T12:10:41.298Z,25.22
2018-06-02T12:13:09.631Z,25.67
2018-06-02T12:15:37.959Z,26.68
2018-06-02T12:18:06.304Z,26.48
2018-06-02T12:20:34.641Z,26.50
2018-06-02T12:23:02.980Z,26.36
2018-06-02T12:25:31.299Z,26.79
2018-06-02T12:27:59.661Z,26.67
2018-06-02T12:30:27.984Z,26.33
2018-06-02T12:32:56.319Z,26.42
2018-06-02T12:35:24.658Z,25.83
2018-06-02T12:37:53.187Z,26.03
2018-06-02T12:40:21.516Z,26.06
2018-06-02T12:42:49.843Z,26.08
2018-06-02T12:45:18.324Z,26.14
2018-06-02T12:47:46.732Z,26.24
2018-06-02T12:50:15.185Z,26.27
2018-06-02T12:52:43.536Z,26.24
2018-06-02T12:55:11.969Z,26.66
2018-06-02T12:57:40.311Z,27.03
2018-06-02T13:00:08.644Z,27.59
2018-06-02T13:02:36.979Z,28.29
2018-06-02T13:05:05.367Z,28.45
2018-06-02T13:07:33.702Z,28.03
2018-06-02T13:10:02.111Z,28.29
2018-06-02T13:12:30.459Z,28.98
2018-06-02T13:14:58.819Z,28.57
2018-06-02T13:17:27.177Z,27.81
2018-06-02T13:19:55.477Z,28.07
2018-06-02T13:22:23.806Z,27.43
2018-06-02T13:24:52.218Z,27.26
2018-06-02T13:27:20.554Z,26.56
2018-06-02T13:29:48.916Z,26.30
2018-06-02T13:32:17.261Z,26.34
2018-06-02T13:34:45.943Z,26.30
2018-06-02T13:37:14.340Z,26.17
2018-06-02T13:39:42.652Z,26.26
2018-06-02T13:42:10.996Z,26.80
2018-06-02T13:44:39.368Z,26.93
2018-06-02T13:47:07.718Z,26.97
2018-06-02T13:49:36.379Z,26.47
2018-06-02T13:52:04.691Z,26.56
2018-06-02T13:54:33.124Z,26.28
2018-06-02T13:57:01.444Z,26.55
2018-06-02T13:59:29.797Z,27.41
2018-06-02T14:01:58.195Z,28.99
2018-06-02T14:04:26.555Z,28.00
2018-06-02T14:06:54.881Z,28.54
2018-06-02T14:09:23.197Z,29.18
2018-06-02T14:11:51.562Z,30.01
2018-06-02T14:16:58.944Z,28.99
2018-06-02T14:19:27.303Z,28.98
2018-06-02T14:21:55.631Z,28.42
2018-06-02T14:24:23.962Z,28.72
2018-06-02T14:26:52.359Z,29.02
2018-06-02T14:29:20.675Z,29.16
2018-06-02T14:31:48.984Z,29.07
2018-06-02T14:34:17.322Z,29.55
2018-06-02T14:36:45.631Z,28.50
2018-06-02T14:39:13.957Z,28.14
2018-06-02T14:41:42.276Z,27.94
2018-06-02T14:44:10.603Z,27.26
2018-06-02T14:46:38.921Z,26.81
2018-06-02T14:49:07.384Z,26.30
2018-06-02T14:51:35.755Z,26.41
2018-06-02T14:54:04.084Z,26.14
2018-06-02T14:56:32.682Z,26.09
2018-06-02T14:59:01.246Z,25.65
2018-06-02T15:01:29.555Z,26.04
2018-06-02T15:03:57.967Z,26.51
2018-06-02T15:06:26.237Z,25.87
2018-06-02T15:08:54.597Z,26.42
2018-06-02T15:11:22.925Z,27.01
2018-06-02T15:13:51.288Z,26.68
2018-06-02T15:16:19.673Z,26.51
2018-06-02T15:18:47.988Z,26.54
2018-06-02T15:21:16.318Z,26.17
2018-06-02T15:23:44.715Z,26.30
2018-06-02T15:26:13.040Z,26.58
2018-06-02T15:28:41.352Z,26.40
2018-06-02T15:31:09.723Z,26.48
2018-06-02T15:33:38.159Z,26.62
2018-06-02T15:36:06.535Z,26.51
2018-06-02T15:38:34.875Z,27.23
2018-06-02T15:41:03.247Z,26.69
2018-06-02T15:43:31.571Z,26.49
2018-06-02T15:46:02.066Z,26.15
2018-06-02T15:48:30.410Z,26.39
2018-06-02T15:50:58.766Z,26.06
2018-06-02T15:53:27.242Z,26.02
2018-06-02T15:55:55.568Z,26.17
2018-06-02T15:58:23.911Z,26.05
2018-06-02T16:00:52.286Z,26.18
2018-06-02T16:03:20.681Z,26.50
2018-06-02T16:05:48.965Z,25.87
2018-06-02T16:08:17.359Z,25.65
2018-06-02T16:10:45.756Z,25.40
2018-06-02T16:13:14.104Z,24.79
2018-06-02T16:15:42.542Z,24.93
2018-06-02T16:18:10.972Z,24.76
2018-06-02T16:20:39.323Z,24.48
2018-06-02T16:23:07.708Z,24.48
2018-06-02T16:25:36.115Z,24.69
2018-06-02T16:28:04.475Z,24.57
2018-06-02T16:30:32.811Z,24.56
2018-06-02T16:33:01.161Z,24.38
2018-06-02T16:35:29.496Z,24.33
2018-06-02T16:37:57.817Z,24.51
2018-06-02T16:40:26.216Z,24.49
2018-06-02T16:42:54.548Z,24.57
2018-06-02T16:45:22.895Z,24.50
2018-06-02T16:47:51.238Z,24.34
2018-06-02T16:50:19.585Z,24.01
2018-06-02T16:52:47.938Z,23.86
2018-06-02T16:55:16.323Z,23.86
2018-06-02T16:57:44.654Z,23.73
2018-06-02T17:00:12.990Z,23.71
2018-06-02T17:02:41.321Z,23.56
2018-06-02T17:05:09.655Z,23.50
2018-06-02T17:07:37.990Z,23.47
2018-06-02T17:10:06.334Z,23.61
2018-06-02T17:12:34.725Z,23.43
2018-06-02T17:15:03.060Z,23.52
2018-06-02T17:17:31.412Z,23.52
2018-06-02T17:19:59.879Z,23.42
2018-06-02T17:22:28.156Z,23.33
2018-06-02T17:24:56.487Z,23.23
2018-06-02T17:27:24.828Z,23.30
2018-06-02T17:29:53.317Z,23.34
2018-06-02T17:32:21.650Z,23.00
2018-06-02T17:34:49.978Z,22.90
2018-06-02T17:37:18.330Z,22.71
2018-06-02T17:39:46.651Z,22.69
2018-06-02T17:42:15.009Z,22.61
2018-06-02T17:44:43.339Z,22.58
2018-06-02T17:47:11.698Z,22.56
2018-06-02T17:49:40.018Z,22.54
2018-06-02T17:52:08.352Z,22.51
2018-06-02T17:54:36.693Z,22.47
2018-06-02T17:57:05.038Z,22.53
2018-06-02T17:59:33.363Z,22.45
2018-06-02T18:02:01.735Z,22.41
2018-06-02T18:04:30.052Z,22.58
2018-06-02T18:06:58.379Z,22.58
2018-06-02T18:09:26.719Z,22.59
2018-06-02T18:11:55.064Z,22.54
2018-06-02T18:14:23.395Z,22.57
2018-06-02T18:16:51.726Z,22.52
2018-06-02T18:19:20.073Z,22.35
2018-06-02T18:21:48.463Z,22.19
2018-06-02T18:24:16.810Z,22.16
2018-06-02T18:26:45.146Z,22.12
2018-06-02T18:29:13.542Z,22.06
2018-06-02T18:31:41.882Z,21.98
2018-06-02T18:34:10.220Z,21.91
2018-06-02T18:36:38.577Z,21.77
2018-06-02T18:39:06.900Z,21.70
2018-06-02T18:41:35.236Z,21.58
2018-06-02T18:44:03.570Z,21.50
2018-06-02T18:46:31.962Z,21.46
2018-06-02T18:49:00.281Z,21.40
2018-06-02T18:51:28.616Z,21.38
2018-06-02T18:53:56.997Z,21.38
2018-06-02T18:56:25.347Z,21.35
2018-06-02T18:58:53.779Z,21.33
2018-06-02T19:01:22.117Z,21.33
2018-06-02T19:03:50.460Z,21.32
2018-06-02T19:06:18.851Z,21.33
2018-06-02T19:08:47.251Z,21.25
2018-06-02T19:11:15.742Z,21.17
2018-06-02T19:13:44.361Z,21.15
2018-06-02T19:16:12.759Z,21.19
2018-06-02T19:18:41.089Z,21.08
2018-06-02T19:21:09.437Z,21.00
2018-06-02T19:23:37.794Z,21.00
2018-06-02T19:26:06.313Z,20.95
2018-06-02T19:28:34.815Z,20.91
2018-06-02T19:31:03.170Z,20.92
2018-06-02T19:33:31.494Z,20.92
2018-06-02T19:35:59.831Z,20.88
2018-06-02T19:38:28.167Z,20.95
2018-06-02T19:40:56.569Z,20.95
2018-06-02T19:43:24.942Z,20.99
2018-06-02T19:45:53.274Z,21.03
2018-06-02T19:48:21.608Z,21.01
2018-06-02T19:50:49.941Z,20.98
2018-06-02T19:53:18.304Z,21.05
2018-06-02T19:55:46.627Z,21.04
2018-06-02T19:58:14.960Z,20.98
2018-06-02T20:00:43.462Z,20.99
2018-06-02T20:03:11.790Z,20.94
2018-06-02T20:05:40.139Z,20.94
2018-06-02T20:08:08.483Z,20.95
2018-06-02T20:10:36.809Z,20.93
2018-06-02T20:13:05.133Z,20.91
2018-06-02T20:15:33.459Z,20.90
2018-06-02T20:18:01.807Z,20.88
2018-06-02T20:20:30.135Z,20.83
2018-06-02T20:22:58.473Z,20.83
2018-06-02T20:25:26.789Z,20.78
2018-06-02T20:27:55.125Z,20.82
2018-06-02T20:30:23.473Z,20.79
2018-06-02T20:32:51.799Z,20.79
2018-06-02T20:35:20.136Z,20.82
2018-06-02T20:37:48.461Z,20.77
2018-06-02T20:40:16.848Z,20.77
2018-06-02T20:42:45.198Z,20.81
2018-06-02T20:45:13.531Z,20.77
2018-06-02T20:47:41.907Z,20.75
2018-06-02T20:50:10.219Z,20.75
2018-06-02T20:52:38.566Z,20.73
2018-06-02T20:55:06.904Z,20.77
2018-06-02T20:57:35.244Z,20.84
2018-06-02T21:00:03.583Z,20.83
2018-06-02T21:02:31.931Z,20.83
2018-06-02T21:05:00.263Z,20.83
2018-06-02T21:07:28.609Z,20.97
2018-06-02T21:09:56.945Z,20.98
2018-06-02T21:12:25.283Z,21.00
2018-06-02T21:14:53.604Z,20.97
2018-06-02T21:17:21.969Z,20.91
2018-06-02T21:19:50.291Z,20.87
2018-06-02T21:22:18.660Z,20.90
2018-06-02T21:24:46.990Z,20.91
2018-06-02T21:27:15.325Z,20.87
2018-06-02T21:29:43.673Z,20.84
2018-06-02T21:32:12.008Z,20.82
2018-06-02T21:34:40.340Z,20.87
2018-06-02T21:37:08.697Z,20.81
2018-06-02T21:39:37.015Z,20.78
2018-06-02T21:42:05.367Z,20.74
2018-06-02T21:44:33.685Z,20.74
2018-06-02T21:47:02.078Z,20.68
2018-06-02T21:49:30.456Z,20.70
2018-06-02T21:51:58.737Z,20.61
2018-06-02T21:54:27.092Z,20.58
2018-06-02T21:56:55.438Z,20.55
2018-06-02T21:59:23.789Z,20.58
2018-06-02T22:01:52.147Z,20.58
2018-06-02T22:04:20.484Z,20.49
2018-06-02T22:06:48.835Z,20.56
2018-06-02T22:09:17.153Z,20.48
2018-06-02T22:11:45.494Z,20.57
2018-06-02T22:14:13.835Z,20.55
2018-06-02T22:16:42.183Z,20.50
2018-06-02T22:19:10.556Z,20.47
2018-06-02T22:21:38.931Z,20.39
2018-06-02T22:24:07.400Z,20.30
2018-06-02T22:26:35.791Z,20.25
2018-06-02T22:29:04.115Z,20.15
2018-06-02T22:31:32.478Z,20.10
2018-06-02T22:34:00.859Z,20.04
2018-06-02T22:36:29.273Z,19.99
2018-06-02T22:38:57.599Z,19.92
2018-06-02T22:41:25.959Z,19.88
2018-06-02T22:43:54.323Z,19.82
2018-06-02T22:46:22.736Z,19.77
2018-06-02T22:48:51.067Z,19.66
2018-06-02T22:51:21.118Z,19.58
2018-06-02T22:56:28.912Z,19.36
2018-06-02T22:58:57.250Z,19.32
2018-06-02T23:01:25.665Z,19.32
2018-06-02T23:03:54.018Z,19.23
2018-06-02T23:06:22.466Z,19.23
2018-06-02T23:08:50.829Z,19.20
2018-06-02T23:11:19.204Z,19.10
2018-06-02T23:13:47.547Z,19.10
2018-06-02T23:16:15.881Z,19.08
2018-06-02T23:18:44.235Z,19.02
2018-06-02T23:21:12.640Z,18.95
2018-06-02T23:23:40.992Z,18.91
2018-06-02T23:26:09.381Z,18.89
2018-06-02T23:28:37.747Z,18.85
2018-06-02T23:31:06.199Z,18.79
2018-06-02T23:33:34.605Z,18.73
2018-06-02T23:36:02.953Z,18.72
2018-06-02T23:38:31.437Z,18.68
2018-06-02T23:40:59.767Z,18.66
2018-06-02T23:43:28.222Z,18.66
2018-06-02T23:45:56.559Z,18.65
2018-06-02T23:48:24.924Z,18.62
2018-06-02T23:50:53.300Z,18.59
2018-06-02T23:53:21.688Z,18.54
2018-06-02T23:55:50.000Z,18.51
2018-06-02T23:58:18.369Z,18.50
